Hauptseite
METAR-TAF:

METAR-TAF

Flughäfen :

Flughafen Kuwait

Kuwait-Stadt, Kuwait

Breite: 29-13N, Länge: 047-59E, Höhe: 55 m

Beobachtung

Neuester Wetterbericht von vor 1 Stunde und 6 Minuten, um 00:00 UTC
Wind 7 kt aus Süd
Temperatur 25°C
Luftfeuchtigkeit 83%
Luftdruck 1012 hPa
Sichtweite: 4000 m
Himmel klar
(schwach) feuchter Dunst

METAR: OKBK 190000Z 17007KT 4000 -BR SKC 25/22 Q1012 NOSIG

Zeit: 04:06 (01:06 UTC)

Prognose

Neuester Wetterbericht von vor 2 Stunden und 21 Minuten, um 22:45 UTC
Gültige Prognose vom 19 um 00 UTC bis 20 um 06 UTC
Wind 10 kt aus Süd
Sichtweite: 7000 m
Zeitweise
vom 19 um 00 UTC bis 19 um 04 UTC
Wind 3 kt aus unterschiedlichen Richtungen
Sichtweite: 3000 m
trockener Dunst

TAF: OKBK 182245Z 1900/2006 19010KT 7000 NSC TEMPO 1900/1904 VRB03KT 3000 HZ

Wetterbeobachtungen und Prognosen von mehr als 4000 Flughäfen (METAR und TAF Bericht).

Die verfügbaren Stationen werden durch gelbe und rote Markierungen auf der Karte dargestellt.

Führen Sie die Maus auf sie, um den Namen der Station zu sehen.

Darauf klicken, um die Beobachtung von Wetterbeobachtungen und Prognosen zu sehen.

Um die Karte zu ändern : klicken Sie auf den grünen Tasten mit einem schwarzen Kreuz Zum Vergrößern, auf den grünen Button mit einem Gedankenstrich zu verkleinern, oder auf die grünen Pfeile für benachbarte Karten.


METAR-TAF: